Time;durP1;ratioP1;P1;durP2;ratioP2;P2;SDS_P1;SDS_P2;PMS_P1;PMS_P2;Temp;Humidity;BMP_temperature;BMP_pressure;BME280_temperature;BME280_humidity;BME280_pressure;Samples;Min_cycle;Max_cycle;Signal;HPM_P1;HPM_P2
2021/06/16 00:01:34;;;;;;;4.57;2.15;;;;;;;;;;5043776;28;20430;-65
2021/06/16 00:03:59;;;;;;;4.47;2.05;;;;;;;;;;5049845;28;20054;-66
2021/06/16 00:06:24;;;;;;;5.90;2.38;;;;;;;;;;5049750;28;20091;-65
2021/06/16 00:08:49;;;;;;;5.60;1.98;;;;;;;;;;5050370;28;20029;-65
2021/06/16 00:11:15;;;;;;;6.00;2.33;;;;;;;;;;5048826;28;20732;-65
2021/06/16 00:13:40;;;;;;;5.37;2.23;;;;;;;;;;5050285;28;20765;-65
2021/06/16 00:16:05;;;;;;;5.33;2.10;;;;;;;;;;5050072;28;20295;-65
2021/06/16 00:18:30;;;;;;;6.63;1.85;;;;;;;;;;5050498;28;20272;-65
2021/06/16 00:20:56;;;;;;;5.03;2.13;;;;;;;;;;5048982;28;20071;-65
2021/06/16 00:23:21;;;;;;;4.43;2.20;;;;;;;;;;5049555;28;20066;-65
2021/06/16 00:25:48;;;;;;;5.47;2.20;;;;;;;;;;5048697;28;20607;-65
2021/06/16 00:28:13;;;;;;;5.03;2.45;;;;;;;;;;5050205;28;20082;-65
2021/06/16 00:30:39;;;;;;;8.20;2.37;;;;;;;;;;5049951;28;20510;-65
2021/06/16 00:33:04;;;;;;;7.20;2.22;;;;;;;;;;5044718;28;20302;-65
2021/06/16 00:35:29;;;;;;;8.23;2.28;;;;;;;;;;5042379;28;20021;-66
2021/06/16 00:37:56;;;;;;;5.13;2.00;;;;;;;;;;5048856;28;20108;-65
2021/06/16 00:40:24;;;;;;;8.45;2.15;;;;;;;;;;5046183;28;20878;-66
2021/06/16 00:42:49;;;;;;;6.35;2.17;;;;;;;;;;5048395;28;20115;-65
2021/06/16 00:45:17;;;;;;;6.53;2.40;;;;;;;;;;5049493;28;20021;-66
2021/06/16 00:47:42;;;;;;;6.07;2.45;;;;;;;;;;5049299;28;20025;-66
2021/06/16 00:50:08;;;;;;;4.17;2.10;;;;;;;;;;5049553;28;20359;-65
2021/06/16 00:52:33;;;;;;;10.02;2.80;;;;;;;;;;5049034;28;20283;-65
2021/06/16 00:54:58;;;;;;;8.23;2.38;;;;;;;;;;5048628;28;20375;-65
2021/06/16 00:57:23;;;;;;;6.67;2.53;;;;;;;;;;5049836;28;20028;-66
2021/06/16 00:59:48;;;;;;;7.93;2.33;;;;;;;;;;5049885;28;20263;-66
2021/06/16 01:02:15;;;;;;;11.80;3.53;;;;;;;;;;5049342;28;20039;-65
2021/06/16 01:04:40;;;;;;;8.50;2.80;;;;;;;;;;5049328;28;20025;-65
2021/06/16 01:07:11;;;;;;;6.32;2.63;;;;;;;;;;5048813;28;20029;-66
2021/06/16 01:09:39;;;;;;;12.82;3.00;;;;;;;;;;5049018;28;20467;-65
2021/06/16 01:12:07;;;;;;;5.07;2.72;;;;;;;;;;5042998;28;20479;-65
2021/06/16 01:14:35;;;;;;;8.05;2.85;;;;;;;;;;5053436;28;20376;-65
2021/06/16 01:17:02;;;;;;;9.73;3.40;;;;;;;;;;5053640;28;20063;-65
2021/06/16 01:19:45;;;;;;;7.00;3.08;;;;;;;;;;5053292;28;20025;-65
2021/06/16 01:22:25;;;;;;;7.38;3.03;;;;;;;;;;5048389;28;20357;-65
2021/06/16 01:24:52;;;;;;;8.63;3.03;;;;;;;;;;5052262;28;20025;-65
2021/06/16 01:27:17;;;;;;;6.05;3.13;;;;;;;;;;5052165;28;20071;-66
2021/06/16 01:29:43;;;;;;;8.48;2.88;;;;;;;;;;5052987;28;20059;-65
2021/06/16 01:32:09;;;;;;;4.60;2.85;;;;;;;;;;5053118;28;20032;-66
2021/06/16 01:34:35;;;;;;;10.20;2.97;;;;;;;;;;5034684;28;20032;-65
2021/06/16 01:37:00;;;;;;;5.57;2.88;;;;;;;;;;5051348;28;20021;-66
2021/06/16 01:39:28;;;;;;;7.60;3.03;;;;;;;;;;5053183;28;20028;-65
2021/06/16 01:41:54;;;;;;;9.60;2.90;;;;;;;;;;5052716;28;20021;-65
2021/06/16 01:44:20;;;;;;;7.80;2.95;;;;;;;;;;5050574;28;20096;-65
2021/06/16 01:46:48;;;;;;;6.38;2.83;;;;;;;;;;5034198;28;20052;-65
2021/06/16 01:49:14;;;;;;;8.63;2.85;;;;;;;;;;5052734;28;20099;-65
2021/06/16 01:51:40;;;;;;;4.55;2.60;;;;;;;;;;5052377;28;20108;-66
2021/06/16 01:54:07;;;;;;;7.15;3.28;;;;;;;;;;5051653;28;20045;-65
2021/06/16 01:56:33;;;;;;;5.63;3.25;;;;;;;;;;5049569;28;20099;-65
2021/06/16 01:58:58;;;;;;;7.68;3.13;;;;;;;;;;5020126;28;20463;-65
2021/06/16 02:01:24;;;;;;;5.10;2.88;;;;;;;;;;5047173;28;20031;-65
2021/06/16 02:03:51;;;;;;;7.22;3.03;;;;;;;;;;5051204;28;20108;-65
2021/06/16 02:06:17;;;;;;;5.13;2.92;;;;;;;;;;5052062;28;20103;-66
2021/06/16 02:08:44;;;;;;;6.57;3.10;;;;;;;;;;5051901;28;20353;-65
2021/06/16 02:11:11;;;;;;;11.70;3.70;;;;;;;;;;5041961;28;20033;-65
2021/06/16 02:13:44;;;;;;;6.15;2.85;;;;;;;;;;5051243;28;20584;-65
2021/06/16 02:16:13;;;;;;;11.70;2.85;;;;;;;;;;5051573;28;20405;-66
2021/06/16 02:18:45;;;;;;;4.95;3.15;;;;;;;;;;5052153;28;20021;-65
2021/06/16 02:21:11;;;;;;;8.27;3.83;;;;;;;;;;5051357;28;20535;-65
2021/06/16 02:23:36;;;;;;;8.27;3.10;;;;;;;;;;5052145;28;20119;-65
2021/06/16 02:26:02;;;;;;;5.70;2.92;;;;;;;;;;5051442;28;20056;-65
2021/06/16 02:28:28;;;;;;;8.68;2.67;;;;;;;;;;5051975;28;20026;-65
2021/06/16 02:30:53;;;;;;;9.13;2.97;;;;;;;;;;5051777;28;20096;-66
2021/06/16 02:33:18;;;;;;;7.72;3.30;;;;;;;;;;5047495;28;20036;-66
2021/06/16 02:35:44;;;;;;;13.70;3.70;;;;;;;;;;5039412;28;20036;-65
2021/06/16 02:38:11;;;;;;;8.43;3.67;;;;;;;;;;5051339;28;20013;-65
2021/06/16 02:40:37;;;;;;;10.57;3.60;;;;;;;;;;5051966;28;20053;-65
2021/06/16 02:43:02;;;;;;;5.85;2.83;;;;;;;;;;5062994;28;20020;-65
2021/06/16 02:45:28;;;;;;;9.98;3.58;;;;;;;;;;5050954;28;20420;-65
2021/06/16 02:47:54;;;;;;;9.55;3.60;;;;;;;;;;5051502;28;20600;-66
2021/06/16 02:50:21;;;;;;;8.40;2.90;;;;;;;;;;5050959;28;20025;-65
2021/06/16 02:52:46;;;;;;;4.20;3.15;;;;;;;;;;5052133;28;20068;-65
2021/06/16 02:55:12;;;;;;;6.75;3.85;;;;;;;;;;5051106;28;20496;-66
2021/06/16 02:57:39;;;;;;;5.85;3.08;;;;;;;;;;5051506;28;20036;-65
2021/06/16 03:00:05;;;;;;;10.07;4.10;;;;;;;;;;5051022;28;20067;-66
2021/06/16 03:02:31;;;;;;;11.68;3.20;;;;;;;;;;5050644;28;20048;-65
2021/06/16 03:04:57;;;;;;;6.43;4.18;;;;;;;;;;5051326;28;20440;-66
2021/06/16 03:07:22;;;;;;;4.60;2.90;;;;;;;;;;5050358;28;20487;-65
2021/06/16 03:09:48;;;;;;;5.85;3.63;;;;;;;;;;5051024;28;20434;-65
2021/06/16 03:12:14;;;;;;;6.90;2.75;;;;;;;;;;5050993;28;20063;-66
2021/06/16 03:14:40;;;;;;;4.82;3.50;;;;;;;;;;5050461;28;20052;-65
2021/06/16 03:17:06;;;;;;;8.45;3.10;;;;;;;;;;5036422;28;20076;-66
2021/06/16 03:19:32;;;;;;;10.38;3.50;;;;;;;;;;5050051;28;20017;-66
2021/06/16 03:21:57;;;;;;;11.60;4.07;;;;;;;;;;5050781;28;20024;-65
2021/06/16 03:24:23;;;;;;;6.18;4.00;;;;;;;;;;5050769;28;20052;-66
2021/06/16 03:26:49;;;;;;;8.70;3.92;;;;;;;;;;5049660;28;20033;-65
2021/06/16 03:29:15;;;;;;;9.75;4.40;;;;;;;;;;5050419;28;20037;-65
2021/06/16 03:31:41;;;;;;;9.32;3.30;;;;;;;;;;5049469;28;20032;-65
2021/06/16 03:34:06;;;;;;;10.40;4.13;;;;;;;;;;5034256;28;20057;-65
2021/06/16 03:36:32;;;;;;;12.57;3.83;;;;;;;;;;5033346;28;20060;-65
2021/06/16 03:38:57;;;;;;;8.20;3.90;;;;;;;;;;5049236;28;20025;-66
2021/06/16 03:41:23;;;;;;;6.78;3.80;;;;;;;;;;5024242;28;20033;-64
2021/06/16 03:43:49;;;;;;;8.23;3.88;;;;;;;;;;5039324;28;20024;-65
2021/06/16 03:46:14;;;;;;;11.43;5.07;;;;;;;;;;5044881;28;20395;-64
2021/06/16 03:48:40;;;;;;;9.10;4.47;;;;;;;;;;5050064;28;20024;-64
2021/06/16 03:51:06;;;;;;;10.85;4.18;;;;;;;;;;5037048;28;20280;-65
2021/06/16 03:53:31;;;;;;;6.25;4.47;;;;;;;;;;5050421;28;20474;-65
2021/06/16 03:55:57;;;;;;;7.90;4.18;;;;;;;;;;5049887;28;20025;-66
2021/06/16 03:58:22;;;;;;;14.05;4.63;;;;;;;;;;5049684;28;20039;-65
2021/06/16 04:00:48;;;;;;;9.18;4.68;;;;;;;;;;5049105;28;20056;-64
2021/06/16 04:03:14;;;;;;;12.35;4.80;;;;;;;;;;5050168;28;20566;-65
2021/06/16 04:05:39;;;;;;;7.43;4.60;;;;;;;;;;5049980;28;20021;-65
2021/06/16 04:08:05;;;;;;;11.68;4.10;;;;;;;;;;5049370;28;20070;-65
2021/06/16 04:10:31;;;;;;;11.27;4.45;;;;;;;;;;5049677;28;20025;-65
2021/06/16 04:12:56;;;;;;;8.50;4.10;;;;;;;;;;5050052;28;20112;-65
2021/06/16 04:15:22;;;;;;;10.23;4.88;;;;;;;;;;5049459;28;20532;-65
2021/06/16 04:17:47;;;;;;;11.20;5.38;;;;;;;;;;5049537;28;20025;-65
2021/06/16 04:20:14;;;;;;;13.63;4.63;;;;;;;;;;5049406;28;20025;-65
2021/06/16 04:22:39;;;;;;;6.75;3.92;;;;;;;;;;5049163;28;20279;-65
2021/06/16 04:25:06;;;;;;;7.78;4.53;;;;;;;;;;5049720;28;20394;-66
2021/06/16 04:27:31;;;;;;;9.65;5.28;;;;;;;;;;5049765;28;20048;-66
2021/06/16 04:29:56;;;;;;;8.23;4.53;;;;;;;;;;5049187;28;20051;-65
2021/06/16 04:32:21;;;;;;;11.10;3.90;;;;;;;;;;5049413;28;20679;-66
2021/06/16 04:34:46;;;;;;;8.93;4.65;;;;;;;;;;5046957;28;20330;-64
2021/06/16 04:37:12;;;;;;;12.20;4.80;;;;;;;;;;5050008;28;20111;-65
2021/06/16 04:39:37;;;;;;;11.17;4.57;;;;;;;;;;5049939;28;20021;-65
2021/06/16 04:42:02;;;;;;;6.45;4.38;;;;;;;;;;5049752;28;20260;-65
2021/06/16 04:44:28;;;;;;;8.52;4.90;;;;;;;;;;5049042;28;20104;-66
2021/06/16 04:46:53;;;;;;;8.13;4.03;;;;;;;;;;5050762;28;20025;-65
2021/06/16 04:49:18;;;;;;;15.00;4.88;;;;;;;;;;5052862;28;20387;-66
2021/06/16 04:51:44;;;;;;;8.10;4.75;;;;;;;;;;5039007;28;20228;-65
2021/06/16 04:54:12;;;;;;;5.90;4.05;;;;;;;;;;5053430;28;20032;-66
2021/06/16 04:56:38;;;;;;;6.07;4.50;;;;;;;;;;5051857;28;20025;-66
2021/06/16 04:59:03;;;;;;;7.35;4.30;;;;;;;;;;5045785;28;20075;-65
2021/06/16 05:01:29;;;;;;;9.02;4.05;;;;;;;;;;5052993;28;20017;-65
2021/06/16 05:03:54;;;;;;;9.77;4.55;;;;;;;;;;5053795;28;20506;-65
2021/06/16 05:06:19;;;;;;;7.23;4.37;;;;;;;;;;5053147;28;20021;-65
2021/06/16 05:08:45;;;;;;;7.73;4.63;;;;;;;;;;5053568;28;20350;-65
2021/06/16 05:11:10;;;;;;;12.80;4.20;;;;;;;;;;5051090;28;20557;-66
2021/06/16 05:13:35;;;;;;;11.27;4.33;;;;;;;;;;5051671;28;20111;-65
2021/06/16 05:16:00;;;;;;;10.40;4.17;;;;;;;;;;5052338;28;20266;-66
2021/06/16 05:18:26;;;;;;;5.75;3.95;;;;;;;;;;5052374;28;20781;-65
2021/06/16 05:20:52;;;;;;;12.68;5.20;;;;;;;;;;5047996;28;20029;-65
2021/06/16 05:23:17;;;;;;;7.38;4.43;;;;;;;;;;5046532;28;20477;-66
2021/06/16 05:25:43;;;;;;;16.15;6.40;;;;;;;;;;5046523;28;20024;-65
2021/06/16 05:28:09;;;;;;;10.55;4.05;;;;;;;;;;5050571;28;20029;-65
2021/06/16 05:30:34;;;;;;;9.95;4.38;;;;;;;;;;5049912;28;20027;-66
2021/06/16 05:32:59;;;;;;;7.63;4.03;;;;;;;;;;5049945;28;20028;-66
2021/06/16 05:35:25;;;;;;;7.18;4.60;;;;;;;;;;5050723;28;20502;-65
2021/06/16 05:37:50;;;;;;;11.20;5.07;;;;;;;;;;5039793;28;20021;-65
2021/06/16 05:40:16;;;;;;;7.50;4.30;;;;;;;;;;5047409;28;20274;-65
2021/06/16 05:42:41;;;;;;;13.45;4.90;;;;;;;;;;5049030;28;20021;-66
2021/06/16 05:45:07;;;;;;;16.10;5.10;;;;;;;;;;5047426;28;20025;-65
2021/06/16 05:47:32;;;;;;;12.32;5.18;;;;;;;;;;5050398;28;20025;-65
2021/06/16 05:49:57;;;;;;;9.68;5.25;;;;;;;;;;5049644;28;20025;-66
2021/06/16 05:52:22;;;;;;;11.73;5.23;;;;;;;;;;5050010;28;20075;-64
2021/06/16 05:54:47;;;;;;;7.82;4.22;;;;;;;;;;5050167;28;20275;-65
2021/06/16 05:57:13;;;;;;;11.27;4.80;;;;;;;;;;5049225;28;20021;-65
2021/06/16 05:59:38;;;;;;;9.52;5.13;;;;;;;;;;5044451;28;20131;-65
2021/06/16 06:02:03;;;;;;;7.93;4.40;;;;;;;;;;5051733;28;20631;-66
2021/06/16 06:04:28;;;;;;;11.10;5.47;;;;;;;;;;5052062;28;20278;-65
2021/06/16 06:06:53;;;;;;;9.57;5.00;;;;;;;;;;5052474;28;20260;-65
2021/06/16 06:09:19;;;;;;;11.43;4.85;;;;;;;;;;5052163;28;20294;-65
2021/06/16 06:11:44;;;;;;;7.10;4.85;;;;;;;;;;5052798;28;20021;-66
2021/06/16 06:14:09;;;;;;;9.17;5.03;;;;;;;;;;5052192;28;20467;-65
2021/06/16 06:16:35;;;;;;;6.63;4.47;;;;;;;;;;5049547;28;20279;-65
2021/06/16 06:19:00;;;;;;;14.05;4.93;;;;;;;;;;5047441;28;20021;-66
2021/06/16 06:21:30;;;;;;;11.40;4.18;;;;;;;;;;5032886;28;20022;-65
2021/06/16 06:23:56;;;;;;;10.55;4.70;;;;;;;;;;5038485;28;20013;-65
2021/06/16 06:26:21;;;;;;;9.20;4.00;;;;;;;;;;5045402;28;20021;-65
2021/06/16 06:28:47;;;;;;;7.23;4.53;;;;;;;;;;5051886;28;20090;-65
2021/06/16 06:31:12;;;;;;;13.35;4.75;;;;;;;;;;5051387;28;20279;-65
2021/06/16 06:33:37;;;;;;;12.10;5.50;;;;;;;;;;5046543;28;20079;-65
2021/06/16 06:36:03;;;;;;;10.20;4.90;;;;;;;;;;5041369;28;20025;-65
2021/06/16 06:38:28;;;;;;;10.50;4.45;;;;;;;;;;5054341;28;20026;-65
2021/06/16 06:40:53;;;;;;;6.95;4.78;;;;;;;;;;5050544;28;20356;-65
2021/06/16 06:43:18;;;;;;;8.13;4.67;;;;;;;;;;5051713;28;20395;-65
2021/06/16 06:45:45;;;;;;;10.23;4.53;;;;;;;;;;5050269;28;20260;-66
2021/06/16 06:48:10;;;;;;;7.15;4.40;;;;;;;;;;5051427;28;20321;-65
2021/06/16 06:50:35;;;;;;;8.05;5.03;;;;;;;;;;5050913;28;20442;-65
2021/06/16 06:53:00;;;;;;;10.35;4.60;;;;;;;;;;5051571;28;20453;-66
2021/06/16 06:55:26;;;;;;;12.63;4.57;;;;;;;;;;5050036;28;20029;-66
2021/06/16 06:57:51;;;;;;;6.78;4.43;;;;;;;;;;5050582;28;20370;-65
2021/06/16 07:00:16;;;;;;;14.15;4.38;;;;;;;;;;5050171;28;20090;-65
2021/06/16 07:02:43;;;;;;;9.07;5.68;;;;;;;;;;5051087;28;20025;-66
2021/06/16 07:05:09;;;;;;;7.60;4.88;;;;;;;;;;5051030;28;20009;-65
2021/06/16 07:07:34;;;;;;;8.38;4.80;;;;;;;;;;5050676;28;20036;-65
2021/06/16 07:09:59;;;;;;;6.33;4.83;;;;;;;;;;5048286;28;20728;-65
2021/06/16 07:12:24;;;;;;;11.37;5.20;;;;;;;;;;5050963;28;20276;-67
2021/06/16 07:14:52;;;;;;;12.90;5.13;;;;;;;;;;5050502;28;20314;-66
2021/06/16 07:17:17;;;;;;;14.85;5.57;;;;;;;;;;5050827;28;20286;-65
2021/06/16 07:19:43;;;;;;;13.00;5.47;;;;;;;;;;5050467;28;20017;-66
2021/06/16 07:22:08;;;;;;;9.10;5.32;;;;;;;;;;5051023;28;20542;-65
2021/06/16 07:24:33;;;;;;;10.80;5.37;;;;;;;;;;5048491;28;20507;-65
2021/06/16 07:26:58;;;;;;;6.82;4.90;;;;;;;;;;5050401;28;20263;-65
2021/06/16 07:29:23;;;;;;;10.55;5.40;;;;;;;;;;5050603;28;20475;-64
2021/06/16 07:31:49;;;;;;;27.13;6.60;;;;;;;;;;5050383;28;20391;-65
2021/06/16 07:34:15;;;;;;;10.15;5.32;;;;;;;;;;5050374;28;20271;-65
2021/06/16 07:36:40;;;;;;;11.73;5.75;;;;;;;;;;5050130;28;20059;-65
2021/06/16 07:39:06;;;;;;;22.85;6.13;;;;;;;;;;5047675;28;20022;-65
2021/06/16 07:41:31;;;;;;;10.07;5.18;;;;;;;;;;5051412;28;20079;-66
2021/06/16 07:43:56;;;;;;;10.95;5.15;;;;;;;;;;5052508;28;20497;-66
2021/06/16 07:46:22;;;;;;;11.10;4.90;;;;;;;;;;5049449;28;20025;-65
2021/06/16 07:48:47;;;;;;;12.45;6.22;;;;;;;;;;5050362;28;20263;-66
2021/06/16 07:51:13;;;;;;;12.95;5.40;;;;;;;;;;5050563;28;20020;-66
2021/06/16 07:53:39;;;;;;;18.03;4.53;;;;;;;;;;5036819;28;20021;-64
2021/06/16 07:56:04;;;;;;;14.43;4.97;;;;;;;;;;5029048;28;20021;-63
2021/06/16 07:58:30;;;;;;;12.27;5.60;;;;;;;;;;5049626;28;20033;-63
2021/06/16 08:00:55;;;;;;;9.82;5.32;;;;;;;;;;5049830;28;20020;-63
2021/06/16 08:03:20;;;;;;;9.10;5.03;;;;;;;;;;5050324;28;20056;-66
2021/06/16 08:05:47;;;;;;;11.57;4.50;;;;;;;;;;5049234;28;20610;-66
2021/06/16 08:08:12;;;;;;;8.10;5.30;;;;;;;;;;5046416;28;20267;-66
2021/06/16 08:10:37;;;;;;;15.10;5.33;;;;;;;;;;5049383;28;20104;-65
2021/06/16 08:13:03;;;;;;;11.53;6.23;;;;;;;;;;5047854;28;20323;-66
2021/06/16 08:15:28;;;;;;;8.60;4.90;;;;;;;;;;5049606;28;20271;-65
2021/06/16 08:17:53;;;;;;;10.25;4.90;;;;;;;;;;5056736;28;20019;-65
2021/06/16 08:20:19;;;;;;;8.10;5.38;;;;;;;;;;5070122;28;20060;-66
2021/06/16 08:22:44;;;;;;;31.90;5.07;;;;;;;;;;5070233;28;20021;-66
2021/06/16 08:25:13;;;;;;;8.67;5.23;;;;;;;;;;5056299;28;20041;-65
2021/06/16 08:27:39;;;;;;;12.55;5.30;;;;;;;;;;5030165;28;20816;-65
2021/06/16 08:30:05;;;;;;;13.77;5.55;;;;;;;;;;5040474;28;20054;-66
2021/06/16 08:32:30;;;;;;;14.63;5.28;;;;;;;;;;5049943;28;20067;-66
2021/06/16 08:34:55;;;;;;;71.60;10.27;;;;;;;;;;5049730;28;20025;-65
2021/06/16 08:37:20;;;;;;;10.00;4.87;;;;;;;;;;5049312;28;20283;-66
2021/06/16 08:39:45;;;;;;;14.93;6.03;;;;;;;;;;5042859;28;20586;-66
2021/06/16 08:42:11;;;;;;;13.70;5.37;;;;;;;;;;5042725;28;20032;-66
2021/06/16 08:44:37;;;;;;;11.35;5.70;;;;;;;;;;5049051;28;20029;-65
2021/06/16 08:47:03;;;;;;;8.38;5.75;;;;;;;;;;5046037;28;20025;-65
2021/06/16 08:49:28;;;;;;;9.60;5.55;;;;;;;;;;5048731;28;20123;-66
2021/06/16 08:51:54;;;;;;;26.20;8.20;;;;;;;;;;5049365;28;20101;-66
2021/06/16 08:54:19;;;;;;;9.02;6.13;;;;;;;;;;5046530;28;20625;-64
2021/06/16 08:56:44;;;;;;;9.47;4.83;;;;;;;;;;5048092;28;20021;-65
2021/06/16 08:59:09;;;;;;;10.77;5.87;;;;;;;;;;5049450;28;20483;-66
2021/06/16 09:01:35;;;;;;;13.85;5.75;;;;;;;;;;5048539;28;20354;-65
2021/06/16 09:04:00;;;;;;;32.63;6.70;;;;;;;;;;5049254;28;20021;-65
2021/06/16 09:06:30;;;;;;;9.70;4.75;;;;;;;;;;5049176;28;20275;-66
2021/06/16 09:09:06;;;;;;;9.68;4.90;;;;;;;;;;5049351;28;20025;-65
2021/06/16 09:11:41;;;;;;;8.32;4.78;;;;;;;;;;5048245;28;20036;-66
2021/06/16 09:14:17;;;;;;;10.85;5.28;;;;;;;;;;5049313;28;20025;-66
2021/06/16 09:16:43;;;;;;;14.55;5.20;;;;;;;;;;5049031;28;20558;-66
2021/06/16 09:19:20;;;;;;;12.68;5.03;;;;;;;;;;5049025;28;20021;-66
2021/06/16 09:21:46;;;;;;;12.25;5.70;;;;;;;;;;5049629;28;20075;-65
2021/06/16 09:24:11;;;;;;;9.32;4.55;;;;;;;;;;5049426;28;20033;-66
2021/06/16 09:26:40;;;;;;;18.02;5.88;;;;;;;;;;5048242;28;20029;-66
2021/06/16 09:29:05;;;;;;;25.98;6.47;;;;;;;;;;5031402;28;20390;-66
2021/06/16 09:31:41;;;;;;;12.35;5.70;;;;;;;;;;5048774;28;20044;-66
2021/06/16 09:34:07;;;;;;;8.60;4.85;;;;;;;;;;5052416;28;20039;-66
2021/06/16 09:36:32;;;;;;;9.85;5.32;;;;;;;;;;5046624;28;20025;-65
2021/06/16 09:39:06;;;;;;;7.80;4.57;;;;;;;;;;5052948;28;20558;-65
2021/06/16 09:41:31;;;;;;;9.52;4.80;;;;;;;;;;5052584;28;20029;-66
2021/06/16 09:43:57;;;;;;;8.27;5.60;;;;;;;;;;5053068;28;20025;-66
2021/06/16 09:46:22;;;;;;;9.30;4.75;;;;;;;;;;5051782;28;20272;-65
2021/06/16 09:48:49;;;;;;;10.23;5.37;;;;;;;;;;5052825;28;20112;-65
2021/06/16 09:51:25;;;;;;;10.38;5.00;;;;;;;;;;5049955;28;20271;-65
2021/06/16 09:54:11;;;;;;;11.80;5.25;;;;;;;;;;5043842;28;20029;-65
2021/06/16 09:56:37;;;;;;;13.98;5.57;;;;;;;;;;5052011;28;20028;-65
2021/06/16 09:59:02;;;;;;;11.90;4.90;;;;;;;;;;5034709;28;20376;-66
2021/06/16 10:01:42;;;;;;;13.47;5.63;;;;;;;;;;5052241;28;20079;-66
2021/06/16 10:04:07;;;;;;;7.43;4.63;;;;;;;;;;5052499;28;20260;-66
2021/06/16 10:06:32;;;;;;;15.30;5.45;;;;;;;;;;5050443;28;20035;-65
2021/06/16 10:09:05;;;;;;;7.10;4.90;;;;;;;;;;5052533;28;20106;-65
2021/06/16 10:11:31;;;;;;;8.20;5.75;;;;;;;;;;5052583;28;20028;-65
2021/06/16 10:13:57;;;;;;;7.68;5.53;;;;;;;;;;5047298;28;20119;-66
2021/06/16 10:16:22;;;;;;;10.13;6.33;;;;;;;;;;5051270;28;20081;-65
2021/06/16 10:18:49;;;;;;;8.38;5.15;;;;;;;;;;5051773;28;20295;-65
2021/06/16 10:21:16;;;;;;;9.18;5.18;;;;;;;;;;5049381;28;20063;-66
2021/06/16 10:23:42;;;;;;;10.02;5.03;;;;;;;;;;5051945;28;20025;-65
2021/06/16 10:26:12;;;;;;;13.32;5.45;;;;;;;;;;5051412;28;20394;-66
2021/06/16 10:28:39;;;;;;;7.43;4.38;;;;;;;;;;5051454;28;20029;-66
2021/06/16 10:31:05;;;;;;;8.32;5.10;;;;;;;;;;5051721;28;20519;-66
2021/06/16 10:33:35;;;;;;;10.35;5.28;;;;;;;;;;5051480;28;20017;-66
2021/06/16 10:36:09;;;;;;;9.88;4.85;;;;;;;;;;5050199;28;20047;-65
2021/06/16 10:38:35;;;;;;;12.15;5.50;;;;;;;;;;5048370;28;20371;-66
2021/06/16 10:41:00;;;;;;;7.22;4.45;;;;;;;;;;5051627;28;20016;-65
2021/06/16 10:43:28;;;;;;;10.40;5.22;;;;;;;;;;5051270;28;20025;-66
2021/06/16 10:45:55;;;;;;;12.32;4.70;;;;;;;;;;5050617;28;20039;-65
2021/06/16 10:48:21;;;;;;;10.82;4.30;;;;;;;;;;5050971;28;20096;-65
2021/06/16 10:50:51;;;;;;;11.93;4.78;;;;;;;;;;5049281;28;20550;-66
2021/06/16 10:53:16;;;;;;;;;;;;;;;;;;5051889;28;20029;-66
2021/06/16 10:56:05;;;;;;;12.07;4.45;;;;;;;;;;5051441;28;19966;-66
2021/06/16 10:58:31;;;;;;;11.07;5.00;;;;;;;;;;5033089;28;20044;-66
2021/06/16 11:01:12;;;;;;;9.27;4.60;;;;;;;;;;5051632;28;20379;-66
2021/06/16 11:03:47;;;;;;;6.30;4.80;;;;;;;;;;5023809;28;20025;-66
2021/06/16 11:06:31;;;;;;;15.07;5.72;;;;;;;;;;5051295;28;20043;-67
2021/06/16 11:08:56;;;;;;;6.95;4.32;;;;;;;;;;5049891;28;20025;-65
2021/06/16 11:11:23;;;;;;;12.60;4.13;;;;;;;;;;5048574;28;20074;-64
2021/06/16 11:13:48;;;;;;;8.50;4.40;;;;;;;;;;5040743;28;20021;-67
2021/06/16 11:16:32;;;;;;;5.90;4.35;;;;;;;;;;5049030;28;20028;-66
2021/06/16 11:19:16;;;;;;;8.80;4.05;;;;;;;;;;5051155;28;20104;-65
2021/06/16 11:21:41;;;;;;;38.63;6.60;;;;;;;;;;5050234;28;20037;-66
2021/06/16 11:24:06;;;;;;;5.83;3.23;;;;;;;;;;5050729;28;20021;-68
2021/06/16 11:26:42;;;;;;;19.57;6.37;;;;;;;;;;5050571;28;20107;-68
2021/06/16 11:29:07;;;;;;;21.52;5.05;;;;;;;;;;5051275;28;20021;-65
2021/06/16 11:31:52;;;;;;;6.80;3.80;;;;;;;;;;5050350;28;20041;-66
2021/06/16 11:34:37;;;;;;;12.38;5.03;;;;;;;;;;5043538;28;20021;-67
2021/06/16 11:37:02;;;;;;;9.00;3.90;;;;;;;;;;5044162;28;20048;-66
2021/06/16 11:39:28;;;;;;;14.32;4.50;;;;;;;;;;5044156;28;20476;-67
2021/06/16 11:41:53;;;;;;;11.43;4.28;;;;;;;;;;5047498;28;20059;-64
2021/06/16 11:44:20;;;;;;;10.13;3.95;;;;;;;;;;5044358;28;20475;-65
2021/06/16 11:46:47;;;;;;;5.47;4.05;;;;;;;;;;5047095;28;20017;-64
2021/06/16 11:49:12;;;;;;;9.15;4.20;;;;;;;;;;5049092;28;20036;-64
2021/06/16 11:51:38;;;;;;;10.47;4.30;;;;;;;;;;5027839;28;20034;-65
2021/06/16 11:54:25;;;;;;;10.53;4.50;;;;;;;;;;5045637;28;20044;-64
2021/06/16 11:56:51;;;;;;;6.18;3.70;;;;;;;;;;5046124;28;20290;-64
2021/06/16 11:59:28;;;;;;;7.05;3.63;;;;;;;;;;5047456;28;20033;-64
2021/06/16 12:02:03;;;;;;;6.03;4.20;;;;;;;;;;5046763;28;20033;-65
2021/06/16 12:04:28;;;;;;;8.48;3.63;;;;;;;;;;5047267;28;20112;-64
2021/06/16 12:06:56;;;;;;;8.53;4.03;;;;;;;;;;5048293;28;20129;-65
2021/06/16 12:09:21;;;;;;;10.70;4.22;;;;;;;;;;5046651;28;20283;-65
2021/06/16 12:11:46;;;;;;;9.43;4.47;;;;;;;;;;5048471;28;20437;-64
2021/06/16 12:14:12;;;;;;;5.83;4.20;;;;;;;;;;5046944;28;20100;-64
2021/06/16 12:16:37;;;;;;;6.27;3.93;;;;;;;;;;5048700;28;20021;-65
2021/06/16 12:19:15;;;;;;;7.07;3.88;;;;;;;;;;5047392;28;20028;-65
2021/06/16 12:21:49;;;;;;;9.35;4.10;;;;;;;;;;5045073;28;20025;-64
2021/06/16 12:24:15;;;;;;;6.95;3.90;;;;;;;;;;5049101;28;20017;-65
2021/06/16 12:26:41;;;;;;;4.90;3.20;;;;;;;;;;5049210;28;20108;-65
2021/06/16 12:29:06;;;;;;;5.25;2.95;;;;;;;;;;5048684;28;20021;-65
2021/06/16 12:31:34;;;;;;;11.52;3.92;;;;;;;;;;5047663;28;20052;-65
2021/06/16 12:36:26;;;;;;;8.43;4.10;;;;;;;;;;5046846;28;20048;-65
2021/06/16 12:38:55;;;;;;;5.78;3.80;;;;;;;;;;5045983;28;20048;-65
2021/06/16 12:41:20;;;;;;;5.00;2.47;;;;;;;;;;5029705;28;20074;-64
2021/06/16 12:43:45;;;;;;;8.43;3.78;;;;;;;;;;5046145;28;20104;-65
2021/06/16 12:46:10;;;;;;;9.30;3.87;;;;;;;;;;5046898;28;20040;-65
2021/06/16 12:48:36;;;;;;;5.95;3.50;;;;;;;;;;5049201;28;20056;-64
2021/06/16 12:51:02;;;;;;;10.20;4.73;;;;;;;;;;5045699;28;20021;-64
2021/06/16 12:53:28;;;;;;;13.07;4.05;;;;;;;;;;5049076;28;20021;-65
2021/06/16 12:55:54;;;;;;;10.10;4.00;;;;;;;;;;5046931;28;20020;-65
2021/06/16 12:58:23;;;;;;;12.55;3.65;;;;;;;;;;5047461;28;20056;-65
2021/06/16 13:00:49;;;;;;;11.05;4.03;;;;;;;;;;5047106;28;20023;-67
2021/06/16 13:03:15;;;;;;;11.48;4.68;;;;;;;;;;5046593;28;20094;-64
2021/06/16 13:05:42;;;;;;;9.70;4.20;;;;;;;;;;5047866;28;20012;-64
2021/06/16 13:08:07;;;;;;;4.85;3.38;;;;;;;;;;5049061;28;20028;-65
2021/06/16 13:10:37;;;;;;;15.70;3.83;;;;;;;;;;5050119;28;20100;-66
2021/06/16 13:13:15;;;;;;;6.25;3.25;;;;;;;;;;5050335;28;20459;-64
2021/06/16 13:15:43;;;;;;;8.38;3.60;;;;;;;;;;5049048;28;20479;-64
2021/06/16 13:18:21;;;;;;;8.43;3.55;;;;;;;;;;5052256;28;20036;-64
2021/06/16 13:20:47;;;;;;;7.68;4.00;;;;;;;;;;5032050;28;20017;-65
2021/06/16 13:23:13;;;;;;;7.30;3.47;;;;;;;;;;5048572;28;20063;-64
2021/06/16 13:25:40;;;;;;;10.65;2.20;;;;;;;;;;5046184;28;20021;-65
2021/06/16 13:28:06;;;;;;;6.57;3.08;;;;;;;;;;5051818;28;20096;-64
2021/06/16 13:30:35;;;;;;;4.43;2.55;;;;;;;;;;5051180;28;20108;-64
2021/06/16 13:33:01;;;;;;;4.30;3.42;;;;;;;;;;5052122;28;20104;-65
2021/06/16 13:35:30;;;;;;;9.05;4.15;;;;;;;;;;5048758;28;20115;-64
2021/06/16 13:37:56;;;;;;;7.30;3.53;;;;;;;;;;5044438;28;20604;-65
2021/06/16 13:40:22;;;;;;;6.43;3.78;;;;;;;;;;5051875;28;20028;-65
2021/06/16 13:42:50;;;;;;;6.13;3.78;;;;;;;;;;5050447;28;20128;-65
2021/06/16 13:45:16;;;;;;;8.05;3.90;;;;;;;;;;5051550;28;20498;-65
2021/06/16 13:47:41;;;;;;;5.97;2.90;;;;;;;;;;5050029;28;20071;-65
2021/06/16 13:50:07;;;;;;;10.38;4.10;;;;;;;;;;5044551;28;20039;-65
2021/06/16 13:52:32;;;;;;;9.77;4.63;;;;;;;;;;5048210;28;20025;-64
2021/06/16 13:54:57;;;;;;;9.13;4.20;;;;;;;;;;5050426;28;20017;-65
2021/06/16 13:57:22;;;;;;;7.60;3.30;;;;;;;;;;5052454;28;20029;-64
2021/06/16 13:59:48;;;;;;;5.47;3.50;;;;;;;;;;5051061;28;20096;-65
2021/06/16 14:02:13;;;;;;;9.80;3.30;;;;;;;;;;5047797;28;20325;-65
2021/06/16 14:04:38;;;;;;;8.30;2.80;;;;;;;;;;5047748;28;20032;-65
2021/06/16 14:07:04;;;;;;;5.43;3.37;;;;;;;;;;5051181;28;20025;-65
2021/06/16 14:09:29;;;;;;;3.95;3.45;;;;;;;;;;5050482;28;20267;-64
2021/06/16 14:11:54;;;;;;;6.13;3.97;;;;;;;;;;5048578;28;20164;-64
2021/06/16 14:14:19;;;;;;;5.80;3.53;;;;;;;;;;5051182;28;20021;-65
2021/06/16 14:16:44;;;;;;;5.87;3.20;;;;;;;;;;5049995;28;20108;-65
2021/06/16 14:19:09;;;;;;;5.27;3.67;;;;;;;;;;5046272;28;20021;-66
2021/06/16 14:21:35;;;;;;;8.90;4.43;;;;;;;;;;5048007;28;21359;-65
2021/06/16 14:24:00;;;;;;;10.68;3.83;;;;;;;;;;5030838;28;20603;-65
2021/06/16 14:26:25;;;;;;;9.73;4.30;;;;;;;;;;5051293;28;20032;-64
2021/06/16 14:28:51;;;;;;;6.90;3.63;;;;;;;;;;5051501;28;21072;-65
2021/06/16 14:31:17;;;;;;;8.55;4.13;;;;;;;;;;5048291;28;20032;-64
2021/06/16 14:33:42;;;;;;;8.27;3.80;;;;;;;;;;5047449;28;20029;-64
2021/06/16 14:36:07;;;;;;;4.80;2.80;;;;;;;;;;5049443;28;20033;-65
2021/06/16 14:38:33;;;;;;;10.45;3.78;;;;;;;;;;5046934;28;20337;-64